Map

Track Data

SID SEASON NUMBER BASIN SUBBASIN NAME ISO_TIME NATURE LAT LON WMO_WIND WMO_PRES WMO_AGENCY TRACK_TYPE DIST2LAND LANDFALL IFLAG USA_AGENCY USA_ATCF_ID USA_LAT USA_LON USA_RECORD USA_STATUS USA_WIND USA_PRES USA_SSHS USA_R34_NE USA_R34_SE USA_R34_SW USA_R34_NW USA_R50_NE USA_R50_SE USA_R50_SW USA_R50_NW USA_R64_NE USA_R64_SE USA_R64_SW USA_R64_NW USA_POCI USA_ROCI USA_RMW USA_EYE TOKYO_LAT TOKYO_LON TOKYO_GRADE TOKYO_WIND TOKYO_PRES TOKYO_R50_DIR TOKYO_R50_LONG TOKYO_R50_SHORT TOKYO_R30_DIR TOKYO_R30_LONG TOKYO_R30_SHORT TOKYO_LAND CMA_LAT CMA_LON CMA_CAT CMA_WIND CMA_PRES HKO_LAT HKO_LON HKO_CAT HKO_WIND HKO_PRES NEWDELHI_LAT NEWDELHI_LON NEWDELHI_GRADE NEWDELHI_WIND NEWDELHI_PRES NEWDELHI_CI NEWDELHI_DP NEWDELHI_POCI REUNION_LAT REUNION_LON REUNION_TYPE REUNION_WIND REUNION_PRES REUNION_TNUM REUNION_CI REUNION_RMW REUNION_R34_NE REUNION_R34_SE REUNION_R34_SW REUNION_R34_NW REUNION_R50_NE REUNION_R50_SE REUNION_R50_SW REUNION_R50_NW REUNION_R64_NE REUNION_R64_SE REUNION_R64_SW REUNION_R64_NW BOM_LAT BOM_LON BOM_TYPE BOM_WIND BOM_PRES BOM_TNUM BOM_CI BOM_RMW BOM_R34_NE BOM_R34_SE BOM_R34_SW BOM_R34_NW BOM_R50_NE BOM_R50_SE BOM_R50_SW BOM_R50_NW BOM_R64_NE BOM_R64_SE BOM_R64_SW BOM_R64_NW BOM_ROCI BOM_POCI BOM_EYE BOM_POS_METHOD BOM_PRES_METHOD NADI_LAT NADI_LON NADI_CAT NADI_WIND NADI_PRES WELLINGTON_LAT WELLINGTON_LON WELLINGTON_WIND WELLINGTON_PRES DS824_LAT DS824_LON DS824_STAGE DS824_WIND DS824_PRES TD9636_LAT TD9636_LON TD9636_STAGE TD9636_WIND TD9636_PRES TD9635_LAT TD9635_LON TD9635_WIND TD9635_PRES TD9635_ROCI NEUMANN_LAT NEUMANN_LON NEUMANN_CLASS NEUMANN_WIND NEUMANN_PRES MLC_LAT MLC_LON MLC_CLASS MLC_WIND MLC_PRES USA_GUST BOM_GUST BOM_GUST_PER REUNION_GUST REUNION_GUST_PER USA_SEAHGT USA_SEARAD_NE USA_SEARAD_SE USA_SEARAD_SW USA_SEARAD_NW STORM_SPEED STORM_DIR
1962015S12064 1962 3 SI MM DAISY 1962-01-15 06:00:00 TS -12.2000 64.0000 main 1110 1055 O________OO_O_ jtwc_sh SH071962 -12.2000 64.0000 -1 -12.2000 64.0000 TC 25 -12.2000 64.0000 7 -12.2000 64.0000 TC 20 11 219
1962015S12064 1962 3 SI MM DAISY 1962-01-15 09:00:00 TS -12.6143 63.6593 main 1055 993 P________PP_P_ SH071962 -12.6326 63.6652 -1 -12.6326 63.6652 TC 30 -12.5595 63.6416 7 -12.6326 63.6652 TC 22 10 222
1962015S12064 1962 3 SI MM DAISY 1962-01-15 12:00:00 TS -12.9738 63.2915 main 993 950 O________OP_O_ jtwc_sh SH071962 -13.0000 63.3000 -1 -13.0000 63.3000 TC 35 -12.8951 63.2661 7 -13.0000 63.3000 TC 25 10 231
1962015S12064 1962 3 SI MM DAISY 1962-01-15 15:00:00 TS -13.2351 62.8743 main 950 895 P________PP_P_ SH071962 -13.2524 62.8799 -1 -13.2524 62.8799 TC 50 -13.1832 62.8576 7 -13.2524 62.8799 TC 25 11 245
1962015S12064 1962 3 SI MM DAISY 1962-01-15 18:00:00 TS -13.4294 62.2823 reunion main 895 852 O____O___OO_O_ jtwc_sh SH071962 -13.4000 62.4000 -1 -13.9000 60.4000 99 9.90000 -13.4000 62.4000 TC 65 -13.4000 62.4000 4 -13.4000 62.4000 TC 25 12 255
1962015S12064 1962 3 SI MM DAISY 1962-01-15 21:00:00 TS -13.5441 61.6486 main 847 807 P____P___PP_P_ SH071962 -13.4724 61.8723 -1 -14.0028 59.8376 99 -13.4724 61.8723 TC 65 -13.5300 61.8829 4 -13.4724 61.8723 TC 25 13 262
1962015S12064 1962 3 SI MM DAISY 1962-01-16 00:00:00 TS -13.6137 60.9877 reunion main 807 771 O____O___OP_O_ jtwc_sh SH071962 -13.5000 61.3000 -1 -14.1000 59.3000 99 9.90000 -13.5000 61.3000 TC 65 -13.5899 61.3168 4 -13.5000 61.3000 TC 25 13 263
1962015S12064 1962 3 SI MM DAISY 1962-01-16 03:00:00 TS -13.6939 60.3295 main 767 750 P____P___PP_P_ SH071962 -13.5574 60.7075 -1 -14.1923 58.7999 99 -13.5574 60.7075 TC 65 -13.6048 60.7173 4 -13.5574 60.7150 TC 27 12 264
1962015S12064 1962 3 SI MM DAISY 1962-01-16 06:00:00 TS -13.7400 59.7400 reunion main 747 722 O____O___OO_O_ jtwc_sh SH071962 -13.6000 60.1000 -1 -14.3000 58.3000 99 9.90000 -13.6000 60.1000 TC 65 -13.6000 60.1000 4 -13.6000 60.1000 TC 30 12 266
1962015S12064 1962 3 SI MM DAISY 1962-01-16 09:00:00 TS -13.7780 59.1456 main 720 711 P____P___PP_P_ SH071962 -13.6073 59.5074 -1 -14.4499 57.7575 99 -13.6073 59.5074 TC 65 -13.6178 59.5055 4 -13.6074 59.4499 TC 30 12 267
1962015S12064 1962 3 SI MM DAISY 1962-01-16 12:00:00 TS -13.8043 58.5390 reunion main 710 705 O____O___OP_O_ jtwc_sh SH071962 -13.6000 58.9000 -1 -14.6000 57.2000 99 9.90000 -13.6000 58.9000 TC 65 -13.6216 58.8948 4 -13.6000 58.8000 TC 30 12 268
1962015S12064 1962 3 SI MM DAISY 1962-01-16 15:00:00 TS -13.8287 57.9344 main 705 705 P____P___PP_P_ SH071962 -13.5998 58.2725 -1 -14.7299 56.6501 99 -13.5998 58.2725 TC 65 -13.6146 58.2618 4 -13.5996 58.2150 TC 32 12 268
1962015S12064 1962 3 SI MM DAISY 1962-01-16 18:00:00 TS -13.8400 57.3000 reunion main 705 675 O____O___OO_O_ jtwc_sh SH071962 -13.6000 57.6000 -1 -14.8000 56.1000 99 9.90000 -13.6000 57.6000 TC 65 -13.6000 57.6000 4 -13.6000 57.6000 TC 35 13 270
1962015S12064 1962 3 SI MM DAISY 1962-01-16 21:00:00 TS -13.8371 56.5965 main 675 602 P____P___PP_P_ SH071962 -13.6075 56.8576 -1 -14.7725 55.5348 99 -13.6075 56.8576 TC 65 -13.5908 56.8673 4 -13.6075 56.8651 TC 37 14 271
1962015S12064 1962 3 SI MM DAISY 1962-01-17 00:00:00 TS -13.8146 55.8825 reunion main 602 529 O____O___OP_O_ jtwc_sh SH071962 -13.6000 56.1000 -1 -14.7000 55.0000 99 9.90000 -13.6000 56.1000 TC 65 -13.5732 56.1127 4 -13.6000 56.1000 TC 40 14 273
1962015S12064 1962 3 SI MM DAISY 1962-01-17 03:00:00 TS -13.7747 55.1968 main 529 472 P____P___PP_P_ SH071962 -13.5575 55.3625 -1 -14.6574 54.5201 99 -13.5575 55.3625 TC 65 -13.5439 55.3767 4 -13.5575 55.3625 TC 40 13 274
1962015S12064 1962 3 SI MM DAISY 1962-01-17 06:00:00 TS -13.7200 54.5800 reunion main 472 422 O____O___OO_O_ jtwc_sh SH071962 -13.5000 54.7000 -1 -14.6000 54.1000 99 9.90000 -13.5000 54.7000 TC 65 -13.5000 54.7000 4 -13.5000 54.7000 TC 40 11 276
1962015S12064 1962 3 SI MM DAISY 1962-01-17 09:00:00 TS -13.6626 54.0768 main 422 388 P____P___PP_P_ SH071962 -13.4572 54.1701 -1 -14.5073 53.7425 99 -13.4572 54.1701 TC 65 -13.4343 54.1313 4 -13.4572 54.1701 TC 40 9 278
1962015S12064 1962 3 SI MM DAISY 1962-01-17 12:00:00 TS -13.5913 53.6250 reunion main 378 336 O____O___OP_O_ jtwc_sh SH071962 -13.4000 53.7000 -1 -14.4000 53.4000 99 9.90000 -13.4000 53.7000 TC 65 -13.3563 53.6250 4 -13.4000 53.7000 TC 40 9 281
1962015S12064 1962 3 SI MM DAISY 1962-01-17 15:00:00 TS -13.4935 53.1482 main 326 284 P____P___PP_P_ SH071962 -13.2999 53.1999 -1 -14.2925 52.9925 99 -13.2999 53.1999 TC 65 -13.2751 53.1563 4 -13.2999 53.1924 TC 42 9 282
1962015S12064 1962 3 SI MM DAISY 1962-01-17 18:00:00 TS -13.4000 52.6800 reunion main 284 242 O____O___OO_O_ jtwc_sh SH071962 -13.2000 52.7000 -1 -14.2000 52.6000 99 9.90000 -13.2000 52.7000 TC 65 -13.2000 52.7000 4 -13.2000 52.7000 TC 45 9 280
1962015S12064 1962 3 SI MM DAISY 1962-01-17 21:00:00 TS -13.3392 52.2283 main 233 192 P____P___PP_P_ SH071962 -13.1424 52.1926 -1 -14.1424 52.2926 99 -13.1424 52.1926 TC 65 -13.1263 52.2137 4 -13.1423 52.2501 TC 47 9 277
1962015S12064 1962 3 SI MM DAISY 1962-01-18 00:00:00 TS -13.2924 51.7870 reunion main 192 153 O____O___OP_O_ jtwc_sh SH071962 -13.1000 51.7000 -1 -14.1000 52.0000 99 9.90000 -13.1000 51.7000 TC 65 -13.0622 51.7349 4 -13.1000 51.8000 TC 50 9 277
1962015S12064 1962 3 SI MM DAISY 1962-01-18 03:00:00 TS -13.2373 51.3442 main 142 99 P____P___PP_P_ SH071962 -13.0424 51.2425 -1 -14.0424 51.6725 99 -13.0424 51.2425 TC 65 -13.0169 51.2636 4 -13.0425 51.3000 TC 52 9 276
1962015S12064 1962 3 SI MM DAISY 1962-01-18 06:00:00 TS -13.2000 50.9000 reunion main 99 58 O____O___OO_O_ jtwc_sh SH071962 -13.0000 50.8000 -1 -14.0000 51.3000 99 9.90000 -13.0000 50.8000 TC 65 -13.0000 50.8000 4 -13.0000 50.8000 TC 55 9 273
1962015S12064 1962 3 SI MM DAISY 1962-01-18 09:00:00 TS -13.1852 50.4483 main 48 10 P____P___PP_P_ SH071962 -12.9774 50.3500 -1 -13.9850 50.8725 99 -12.9774 50.3500 TC 65 -13.0090 50.3267 4 -12.9774 50.3425 TC 55 9 269
1962015S12064 1962 3 SI MM DAISY 1962-01-18 12:00:00 TS -13.2095 49.9925 reunion main 10 0 O____O___OP_O_ jtwc_sh SH071962 -13.0000 49.9000 -1 -14.0000 50.4000 99 9.90000 -13.0000 49.9000 TC 65 -13.0474 49.8626 4 -13.0000 49.9000 TC 55 9 264
1962015S12064 1962 3 SI MM DAISY 1962-01-18 15:00:00 TS -13.2804 49.5260 main 0 0 P____P___PP_P_ SH071962 -13.0850 49.4351 -1 -14.0349 49.9075 99 -13.0850 49.4351 TC 65 -13.1121 49.4172 4 -13.0850 49.4351 TC 52 9 259
1962015S12064 1962 3 SI MM DAISY 1962-01-18 18:00:00 TS -13.3800 49.0800 reunion main 0 0 O____O___OO_O_ jtwc_sh SH071962 -13.2000 49.0000 -1 -14.1000 49.4000 99 9.90000 -13.2000 49.0000 TC 65 -13.2000 49.0000 4 -13.2000 49.0000 TC 50 8 257
1962015S12064 1962 3 SI MM DAISY 1962-01-18 21:00:00 TS -13.4674 48.6908 main 0 0 P____P___PP_P_ SH071962 -13.2924 48.6349 -1 -14.1774 48.8999 99 -13.2924 48.6349 TC 65 -13.2825 48.6493 4 -13.2924 48.6349 TC 52 8 255
1962015S12064 1962 3 SI MM DAISY 1962-01-19 00:00:00 TS -13.5778 48.3244 reunion main 0 0 O____O___OP_O_ jtwc_sh SH071962 -13.4000 48.3000 -1 -14.3000 48.4000 99 9.90000 -13.4000 48.3000 TC 65 -13.3890 48.3218 4 -13.4000 48.3000 TC 55 8 250
1962015S12064 1962 3 SI MM DAISY 1962-01-19 03:00:00 TS -13.7216 47.9646 main 0 0 P____P___PP_P_ SH071962 -13.5348 47.9724 -1 -14.4848 47.9150 99 -13.5348 47.9724 TC 65 -13.5261 47.9835 4 -13.5273 47.9798 TC 60 8 247
1962015S12064 1962 3 SI MM DAISY 1962-01-19 06:00:00 TS -13.9000 47.5600 reunion main 32 32 O____O___OO_O_ jtwc_sh SH071962 -13.7000 47.6000 -1 -14.7000 47.4000 99 9.90000 -13.7000 47.6000 TC 65 -13.7000 47.6000 4 -13.7000 47.6000 TC 65 10 247
1962015S12064 1962 3 SI MM DAISY 1962-01-19 09:00:00 TS -14.0929 47.0475 main 82 82 P____P___PP_P_ SH071962 -13.8775 47.1299 -1 -14.8926 46.7924 99 -13.8775 47.1299 TC 65 -13.8819 47.1129 4 -13.9351 47.0726 TC 67 11 248
1962015S12064 1962 3 SI MM DAISY 1962-01-19 12:00:00 TS -14.3206 46.4959 reunion main 109 109 O____O___OP_O_ jtwc_sh SH071962 -14.1000 46.6000 -1 -15.1000 46.2000 99 9.90000 -14.1000 46.6000 TC 65 -14.1030 46.5795 4 -14.2000 46.5000 TC 70 12 245
1962015S12064 1962 3 SI MM DAISY 1962-01-19 15:00:00 TS -14.5704 45.9701 main 110 110 P____P___PP_P_ SH071962 -14.3625 46.0498 -1 -15.3273 45.7273 99 -14.3625 46.0498 TC 65 -14.3725 46.0314 4 -14.4273 45.9922 TC 70 12 241
1962015S12064 1962 3 SI MM DAISY 1962-01-19 18:00:00 TS -14.8800 45.4600 reunion main 112 79 O____O___OO_O_ jtwc_sh SH071962 -14.7000 45.5000 -1 -15.6000 45.3000 99 9.90000 -14.7000 45.5000 TC 65 -14.7000 45.5000 4 -14.7000 45.5000 TC 70 12 234
1962015S12064 1962 3 SI MM DAISY 1962-01-19 21:00:00 TS -15.2755 44.9526 main 79 67 P____P___PP_P_ SH071962 -15.1274 44.9775 -1 -15.9350 44.8425 99 -15.1274 44.9775 TC 65 -15.1250 44.9808 4 -15.0625 44.9850 TC 70 13 228
1962015S12064 1962 3 SI MM DAISY 1962-01-20 00:00:00 TS -15.7200 44.4778 reunion main 67 33 O____O___OP_O_ jtwc_sh SH071962 -15.6000 44.5000 -1 -16.3000 44.4000 99 9.90000 -15.6000 44.5000 TC 65 -15.6002 44.4891 4 -15.5000 44.5000 TC 70 13 224
1962015S12064 1962 3 SI MM DAISY 1962-01-20 03:00:00 TS -16.1830 44.0331 main 44 42 P____P___PP_P_ SH071962 -16.0725 44.0550 -1 -16.6725 43.9551 99 -16.0725 44.0550 TC 65 -16.0752 44.0526 4 -16.0225 44.0477 TC 70 12 221
1962015S12064 1962 3 SI MM DAISY 1962-01-20 06:00:00 TS -16.6000 43.6800 reunion main 72 69 O____O___OO_O_ jtwc_sh SH071962 -16.5000 43.7000 -1 -17.0000 43.6000 99 9.90000 -16.5000 43.7000 TC 65 -16.5000 43.7000 4 -16.5000 43.7000 TC 70 9 217
1962015S12064 1962 3 SI MM DAISY 1962-01-20 09:00:00 TS -16.9053 43.4633 main 72 69 P____P___PP_P_ SH071962 -16.8374 43.4548 -1 -17.2373 43.4198 99 -16.8374 43.4548 TC 65 -16.8271 43.4748 4 -16.7873 43.5121 TC 72 6 212
1962015S12064 1962 3 SI MM DAISY 1962-01-20 12:00:00 TS -17.1393 43.3262 reunion main 77 67 O____O___OP_O_ jtwc_sh SH071962 -17.1000 43.3000 -1 -17.4000 43.3000 99 9.90000 -17.1000 43.3000 TC 65 -17.0966 43.3311 4 -17.0000 43.4000 TC 75 5 210
1962015S12064 1962 3 SI MM DAISY 1962-01-20 15:00:00 TS -17.3485 43.1973 main 77 75 P____P___PP_P_ SH071962 -17.3299 43.1999 -1 -17.5000 43.1074 99 -17.3299 43.1999 TC 65 -17.3179 43.2220 4 -17.2650 43.2575 TC 72 5 214
1962015S12064 1962 3 SI MM DAISY 1962-01-20 18:00:00 TS -17.5200 43.0600 reunion main 84 84 O____O___OO_O_ jtwc_sh SH071962 -17.5000 43.1000 -1 -17.6000 42.9000 99 9.90000 -17.5000 43.1000 TC 65 -17.5000 43.1000 4 -17.5000 43.1000 TC 70 4 224
1962015S12064 1962 3 SI MM DAISY 1962-01-20 21:00:00 TS -17.6688 42.8762 main 108 108 P____P___PP_P_ SH071962 -17.6075 42.9224 -1 -17.8000 42.6926 99 -17.6075 42.9224 TC 65 -17.6566 42.9287 4 -17.6725 42.9150 TC 70 5 234
1962015S12064 1962 3 SI MM DAISY 1962-01-21 00:00:00 TS -17.7959 42.6664 reunion main 131 131 O____O___OP_O_ jtwc_sh SH071962 -17.7000 42.7000 -1 -18.0000 42.5000 99 9.90000 -17.7000 42.7000 TC 65 -17.7795 42.7319 4 -17.8000 42.7000 TC 70 5 238
1962015S12064 1962 3 SI MM DAISY 1962-01-21 03:00:00 TS -17.9159 42.4613 main 154 154 P____P___PP_P_ SH071962 -17.8424 42.4799 -1 -18.1074 42.3723 99 -17.8424 42.4799 TC 65 -17.8877 42.4942 4 -17.8999 42.4799 TC 70 5 241
1962015S12064 1962 3 SI MM DAISY 1962-01-21 06:00:00 TS -18.0400 42.2000 reunion main 188 188 O____O___OO_O_ jtwc_sh SH071962 -18.0000 42.2000 -1 -18.2000 42.2000 99 9.90000 -18.0000 42.2000 TC 65 -18.0000 42.2000 4 -18.0000 42.2000 TC 70 6 245
1962015S12064 1962 3 SI MM DAISY 1962-01-21 09:00:00 TS -18.1826 41.8459 main 232 232 P____P___PP_P_ SH071962 -18.1500 41.8300 -1 -18.3275 41.8949 99 -18.1500 41.8300 TC 65 -18.1428 41.8447 4 -18.1425 41.8300 TC 67 8 248
1962015S12064 1962 3 SI MM DAISY 1962-01-21 12:00:00 TS -18.3385 41.4265 reunion main 263 257 O____O___OP_O_ jtwc_sh SH071962 -18.3000 41.4000 -1 -18.5000 41.5000 99 9.90000 -18.3000 41.4000 TC 65 -18.2925 41.4324 4 -18.3000 41.4000 TC 65 9 248
1962015S12064 1962 3 SI MM DAISY 1962-01-21 15:00:00 TS -18.5076 40.9907 main 257 239 P____P___PP_P_ SH071962 -18.4499 40.9649 -1 -18.7424 41.0800 99 -18.4499 40.9649 TC 65 -18.4458 40.9789 4 -18.4499 40.9649 TC 62 9 248
1962015S12064 1962 3 SI MM DAISY 1962-01-21 18:00:00 TS -18.6800 40.5200 reunion main 241 222 O____O___OO_O_ jtwc_sh SH071962 -18.6000 40.5000 -1 -19.0000 40.6000 99 9.90000 -18.6000 40.5000 TC 65 -18.6000 40.5000 4 -18.6000 40.5000 TC 60 10 250
1962015S12064 1962 3 SI MM DAISY 1962-01-21 21:00:00 TS -18.8439 40.0183 main 222 221 P____P___PP_P_ SH071962 -18.7499 40.0074 -1 -19.2073 40.0798 99 -18.7499 40.0074 TC 65 -18.7626 39.9893 4 -18.7499 40.0074 TC 60 10 252
1962015S12064 1962 3 SI MM DAISY 1962-01-22 00:00:00 TS -19.0046 39.4926 reunion main 227 222 O____O___OP_O_ jtwc_sh SH071962 -18.9000 39.5000 -1 -19.4000 39.5000 99 9.90000 -18.9000 39.5000 TC 65 -18.9231 39.4629 4 -18.9000 39.5000 TC 60 11 252
1962015S12064 1962 3 SI MM DAISY 1962-01-22 03:00:00 TS -19.1704 38.9490 main 228 207 P____P___PP_P_ SH071962 -19.0576 38.9700 -1 -19.6072 38.8799 99 -19.0576 38.9700 TC 65 -19.0720 38.9550 4 -19.0576 38.9700 TC 57 10 254
1962015S12064 1962 3 SI MM DAISY 1962-01-22 06:00:00 TS -19.2947 38.4526 reunion main 207 184 O____O___OO_O_ jtwc_sh SH071962 -19.2000 38.5000 -1 -19.8000 38.2000 99 9.90000 -19.2000 38.5000 TC 65 -19.2000 38.5000 4 -19.2000 38.5000 TC 55 8 255
1962015S12064 1962 3 SI MM DAISY 1962-01-22 09:00:00 TS -19.3823 38.0890 main 184 163 P____P___PP_P_ SH071962 -19.3148 38.1699 -1 -19.9607 37.4652 99 -19.3148 38.1699 TC 65 -19.2956 38.1582 4 -19.3148 38.1699 TC 52 6 257
1962015S12064 1962 3 SI MM DAISY 1962-01-22 12:00:00 TS -19.4344 37.8222 reunion main 163 146 O____O___OP_O_ jtwc_sh SH071962 -19.4000 37.9000 -1 -20.1000 36.7000 99 9.90000 -19.4000 37.9000 TC 65 -19.3712 37.8693 4 -19.4000 37.9000 TC 50 5 261
1962015S12064 1962 3 SI MM DAISY 1962-01-22 15:00:00 TS -19.4502 37.6101 main 152 124 P________PP_P_ SH071962 -19.4574 37.6149 -1 99 -19.4574 37.6149 TC 65 -19.4363 37.5958 4 -19.4499 37.6149 TC 47 5 262
1962015S12064 1962 3 SI MM DAISY 1962-01-22 18:00:00 TS -19.5000 37.3000 main 124 99 O________OO_O_ jtwc_sh SH071962 -19.5000 37.3000 -1 -19.5000 37.3000 TC 65 -19.5000 37.3000 4 -19.5000 37.3000 TC 45 7 260
1962015S12064 1962 3 SI MM DAISY 1962-01-22 21:00:00 TS -19.5636 36.9245 main 100 81 P________PP_P_ SH071962 -19.5425 36.9149 -1 -19.5425 36.9149 TC 65 -19.5693 36.9529 4 -19.6000 36.9151 TC 42 8 259
1962015S12064 1962 3 SI MM DAISY 1962-01-23 00:00:00 TS -19.6409 36.5140 main 81 76 O________OP_O_ jtwc_sh SH071962 -19.6000 36.5000 -1 -19.6000 36.5000 TC 65 -19.6439 36.5606 4 -19.7000 36.5000 TC 40 8 258
1962015S12064 1962 3 SI MM DAISY 1962-01-23 03:00:00 TS -19.7233 36.1056 main 76 53 P________PP_P_ SH071962 -19.6901 36.0951 -1 -19.6901 36.0951 TC 65 -19.7215 36.1380 4 -19.7574 36.0999 TC 37 8 258
1962015S12064 1962 3 SI MM DAISY 1962-01-23 06:00:00 TS -19.8000 35.7000 main 53 23 O________OO_O_ jtwc_sh SH071962 -19.8000 35.7000 -1 -19.8000 35.7000 TC 65 -19.8000 35.7000 4 -19.8000 35.7000 TC 35 8 261
1962015S12064 1962 3 SI MM DAISY 1962-01-23 09:00:00 TS -19.8499 35.3000 main 23 0 ____________P_ SH071962 -1 TC 4 -19.8499 35.3000 TC 32 8 262
1962015S12064 1962 3 SI MM DAISY 1962-01-23 12:00:00 TS -19.9000 34.9000 main 0 0 ____________O_ -1 4 -19.9000 34.9000 TC 30 8 262
1962015S12064 1962 3 SI MM DAISY 1962-01-23 15:00:00 TS -19.9502 34.5001 main 0 0 ____________P_ -1 4 -19.9502 34.5001 TC 27 8 262
1962015S12064 1962 3 SI MM DAISY 1962-01-23 18:00:00 TS -20.0000 34.1000 main 0 ____________O_ -1 -20.0000 34.1000 TC 25 8 262

About IBTrACS Database

This database is a web-friendly format of International Best Track Archive for Climate Stewardship (IBTrACS), a global best track data archive curated by NOAA dating back to 1842.

Updated: 2021-10-21